Accueil
METAR-TAF:

METAR-TAF

Aéroports :

Aviano Air Base

Aviano, Italie

latitude: 46-02N, longitude: 012-36E, altitude: 128 m

METAR: absent

Heure: 02:32 (00:32 UTC)

Prévision

Le bulletin a été fait il y a 7 heures et 32 minutes, à 17:00 UTC
Prévision valable du 05 à 18 UTC au 06 à 03 UTC
Vent 10 kt de nord-est
Visibilité 10 km ou plus
Nuages épars à une hauteur de 4000 ft
Nuages épars à une hauteur de 6000 ft

TAF: LIPA 051700Z 0518/0603 05010KT 9999 SCT040 SCT060

Observations et prévisions météorologiques de plus de 4000 aéroports (messages METAR et TAF).

Les stations disponibles sont représentées par des disques jaunes et rouges sur la carte.

Passer la souris dessus pour voir le nom de la station.

Cliquer dessus pour voir les observations et prévisions météorologiques.

Pour changer de carte: cliquez sur les boutons verts avec une croix noire pour zoomer, sur le bouton vert avec un tiret pour effectuer un zoom arrière, ou sur les flèches vertes pour les cartes adjacentes.


METAR-TAF: